createdAt,value
2023-02-19T00:01:52.979Z,5.58
2023-02-19T00:04:23.855Z,5.59
2023-02-19T00:06:52.228Z,5.59
2023-02-19T00:09:21.548Z,5.61
2023-02-19T00:11:50.242Z,5.60
2023-02-19T00:14:21.374Z,5.62
2023-02-19T00:16:49.770Z,5.64
2023-02-19T00:19:19.513Z,5.65
2023-02-19T00:21:47.750Z,5.65
2023-02-19T00:24:16.376Z,5.66
2023-02-19T00:26:45.501Z,5.66
2023-02-19T00:29:14.934Z,5.64
2023-02-19T00:31:45.211Z,5.65
2023-02-19T00:34:14.153Z,5.66
2023-02-19T00:36:43.144Z,5.68
2023-02-19T00:39:14.089Z,5.66
2023-02-19T00:41:42.215Z,5.67
2023-02-19T00:44:12.450Z,5.67
2023-02-19T00:46:42.122Z,5.68
2023-02-19T00:49:16.009Z,5.68
2023-02-19T00:51:44.255Z,5.69
2023-02-19T00:54:13.227Z,5.62
2023-02-19T00:56:41.317Z,5.59
2023-02-19T00:59:09.372Z,5.62
2023-02-19T01:01:37.485Z,5.61
2023-02-19T01:04:06.905Z,5.64
2023-02-19T01:06:36.581Z,5.64
2023-02-19T01:09:05.354Z,5.64
2023-02-19T01:11:33.443Z,5.63
2023-02-19T01:14:02.313Z,5.63
2023-02-19T01:16:31.039Z,5.66
2023-02-19T01:18:59.527Z,5.69
2023-02-19T01:21:28.882Z,5.68
2023-02-19T01:24:00.573Z,5.62
2023-02-19T01:26:30.702Z,5.56
2023-02-19T01:29:00.207Z,5.52
2023-02-19T01:31:28.731Z,5.50
2023-02-19T01:33:58.336Z,5.49
2023-02-19T01:36:27.143Z,5.48
2023-02-19T01:38:55.399Z,5.49
2023-02-19T01:41:26.240Z,5.48
2023-02-19T01:43:58.428Z,5.47
2023-02-19T01:46:27.976Z,5.46
2023-02-19T01:48:58.083Z,5.41
2023-02-19T01:51:26.267Z,5.37
2023-02-19T01:53:58.718Z,5.30
2023-02-19T01:56:28.653Z,5.25
2023-02-19T01:58:58.094Z,5.21
2023-02-19T02:01:26.206Z,5.20
2023-02-19T02:03:54.510Z,5.16
2023-02-19T02:06:24.530Z,5.12
2023-02-19T02:09:12.041Z,5.08
2023-02-19T02:11:43.959Z,5.04
2023-02-19T02:14:12.217Z,5.05
2023-02-19T02:16:46.148Z,5.08
2023-02-19T02:19:29.924Z,5.08
2023-02-19T02:22:06.851Z,5.11
2023-02-19T02:25:22.928Z,5.14
2023-02-19T02:28:00.684Z,5.17
2023-02-19T02:30:38.750Z,5.20
2023-02-19T02:33:16.030Z,5.22
2023-02-19T02:35:48.549Z,5.22
2023-02-19T02:38:18.233Z,5.23
2023-02-19T02:40:46.335Z,5.22
2023-02-19T02:43:14.508Z,5.20
2023-02-19T02:45:44.015Z,5.20
2023-02-19T02:48:24.605Z,5.16
2023-02-19T02:50:56.129Z,5.12
2023-02-19T02:53:57.431Z,5.06
2023-02-19T02:56:26.541Z,5.02
2023-02-19T02:58:56.091Z,4.99
2023-02-19T03:01:46.247Z,4.96
2023-02-19T03:04:20.301Z,4.93
2023-02-19T03:06:49.434Z,4.91
2023-02-19T03:09:21.626Z,4.89
2023-02-19T03:12:09.305Z,4.86
2023-02-19T03:14:57.699Z,4.83
2023-02-19T03:17:48.930Z,4.78
2023-02-19T03:20:20.891Z,4.75
2023-02-19T03:22:50.089Z,4.69
2023-02-19T03:25:39.401Z,4.63
2023-02-19T03:28:11.159Z,4.57
2023-02-19T03:30:42.980Z,4.52
2023-02-19T03:33:14.931Z,4.48
2023-02-19T03:35:45.991Z,4.43
2023-02-19T03:38:18.896Z,4.41
2023-02-19T03:40:55.513Z,4.34
2023-02-19T03:43:28.079Z,4.31
2023-02-19T03:46:01.539Z,4.27
2023-02-19T03:48:35.244Z,4.24
2023-02-19T03:51:14.081Z,4.21
2023-02-19T03:53:50.674Z,4.17
2023-02-19T03:56:23.298Z,4.14
2023-02-19T03:58:56.125Z,4.10
2023-02-19T04:01:29.706Z,4.06
2023-02-19T04:04:03.134Z,4.01
2023-02-19T04:06:32.799Z,3.97
2023-02-19T04:09:03.109Z,3.93
2023-02-19T04:11:33.022Z,3.90
2023-02-19T04:14:04.812Z,3.86
2023-02-19T04:16:35.046Z,3.81
2023-02-19T04:19:08.357Z,3.78
2023-02-19T04:21:38.250Z,3.74
2023-02-19T04:24:11.086Z,3.73
2023-02-19T04:26:39.316Z,3.71
2023-02-19T04:29:07.403Z,3.69
2023-02-19T04:31:36.515Z,3.66
2023-02-19T04:34:06.088Z,3.63
2023-02-19T04:36:34.674Z,3.62
2023-02-19T04:39:02.770Z,3.60
2023-02-19T04:41:30.879Z,3.59
2023-02-19T04:43:58.930Z,3.58
2023-02-19T04:46:27.073Z,3.54
2023-02-19T04:48:55.169Z,3.51
2023-02-19T04:51:24.664Z,3.50
2023-02-19T04:53:52.726Z,3.50
2023-02-19T04:56:21.356Z,3.51
2023-02-19T04:58:49.424Z,3.50
2023-02-19T05:01:17.501Z,3.52
2023-02-19T05:03:45.817Z,3.50
2023-02-19T05:06:15.262Z,3.49
2023-02-19T05:08:44.713Z,3.48
2023-02-19T05:11:13.622Z,3.48
2023-02-19T05:13:41.964Z,3.46
2023-02-19T05:16:13.851Z,3.44
2023-02-19T05:18:44.736Z,3.45
2023-02-19T05:21:13.778Z,3.41
2023-02-19T05:23:42.512Z,3.41
2023-02-19T05:26:17.116Z,3.38
2023-02-19T05:28:45.288Z,3.38
2023-02-19T05:31:14.472Z,3.37
2023-02-19T05:33:44.193Z,3.35
2023-02-19T05:36:13.778Z,3.32
2023-02-19T05:38:42.456Z,3.32
2023-02-19T05:41:14.350Z,3.32
2023-02-19T05:43:43.625Z,3.31
2023-02-19T05:46:12.717Z,3.31
2023-02-19T05:48:41.031Z,3.32
2023-02-19T05:51:11.747Z,3.30
2023-02-19T05:53:40.194Z,3.29
2023-02-19T05:56:30.700Z,3.29
2023-02-19T05:58:59.474Z,3.30
2023-02-19T06:01:29.104Z,3.28
2023-02-19T06:03:57.916Z,3.26
2023-02-19T06:06:26.732Z,3.26
2023-02-19T06:08:55.255Z,3.27
2023-02-19T06:11:25.758Z,3.27
2023-02-19T06:13:53.856Z,3.28
2023-02-19T06:16:22.677Z,3.31
2023-02-19T06:18:50.986Z,3.32
2023-02-19T06:21:20.127Z,3.30
2023-02-19T06:23:48.439Z,3.30
2023-02-19T06:26:20.435Z,3.29
2023-02-19T06:28:51.674Z,3.30
2023-02-19T06:31:20.811Z,3.30
2023-02-19T06:33:50.621Z,3.31
2023-02-19T06:36:20.287Z,3.31
2023-02-19T06:38:48.663Z,3.30
2023-02-19T06:41:17.179Z,3.30
2023-02-19T06:43:46.477Z,3.27
2023-02-19T06:46:16.062Z,3.27
2023-02-19T06:48:45.615Z,3.24
2023-02-19T06:51:14.537Z,3.22
2023-02-19T06:53:42.718Z,3.19
2023-02-19T06:56:25.155Z,3.17
2023-02-19T06:58:53.692Z,3.18
2023-02-19T07:01:23.240Z,3.17
2023-02-19T07:03:52.498Z,3.17
2023-02-19T07:06:21.036Z,3.15
2023-02-19T07:08:49.162Z,3.14
2023-02-19T07:11:18.705Z,3.10
2023-02-19T07:13:46.968Z,3.10
2023-02-19T07:16:17.929Z,3.10
2023-02-19T07:18:47.425Z,3.09
2023-02-19T07:21:17.128Z,3.08
2023-02-19T07:23:47.302Z,3.09
2023-02-19T07:26:17.493Z,3.09
2023-02-19T07:28:46.643Z,3.09
2023-02-19T07:31:16.168Z,3.10
2023-02-19T07:33:44.803Z,3.08
2023-02-19T07:36:15.320Z,3.09
2023-02-19T07:38:43.411Z,3.08
2023-02-19T07:41:11.816Z,3.11
2023-02-19T07:43:40.470Z,3.12
2023-02-19T07:46:09.980Z,3.18
2023-02-19T07:48:38.729Z,3.26
2023-02-19T07:51:08.530Z,3.35
2023-02-19T07:53:38.155Z,3.42
2023-02-19T07:56:07.907Z,3.50
2023-02-19T07:58:36.279Z,3.58
2023-02-19T08:01:12.358Z,3.66
2023-02-19T08:03:39.759Z,3.75
2023-02-19T08:06:08.864Z,3.80
2023-02-19T08:08:38.579Z,3.92
2023-02-19T08:11:24.836Z,4.05
2023-02-19T08:13:53.679Z,4.22
2023-02-19T08:16:40.817Z,4.39
2023-02-19T08:19:11.151Z,4.52
2023-02-19T08:21:39.236Z,4.64
2023-02-19T08:24:08.985Z,4.79
2023-02-19T08:26:37.333Z,4.96
2023-02-19T08:29:05.818Z,5.09
2023-02-19T08:31:34.439Z,5.20
2023-02-19T08:34:02.667Z,5.23
2023-02-19T08:36:30.798Z,5.34
2023-02-19T08:38:59.034Z,5.46
2023-02-19T08:41:28.540Z,5.53
2023-02-19T08:43:56.587Z,5.61
2023-02-19T08:46:24.816Z,5.71
2023-02-19T08:48:53.094Z,5.82
2023-02-19T08:51:21.168Z,5.95
2023-02-19T08:53:49.271Z,6.04
2023-02-19T08:56:18.578Z,6.13
2023-02-19T08:58:48.159Z,6.16
2023-02-19T09:01:19.099Z,6.16
2023-02-19T09:03:47.293Z,6.28
2023-02-19T09:06:17.903Z,6.35
2023-02-19T09:08:46.147Z,6.40
2023-02-19T09:11:14.594Z,6.38
2023-02-19T09:13:43.151Z,6.43
2023-02-19T09:16:13.151Z,6.54
2023-02-19T09:18:41.296Z,6.69
2023-02-19T09:21:09.993Z,6.81
2023-02-19T09:23:38.509Z,6.89
2023-02-19T09:26:08.610Z,6.89
2023-02-19T09:28:39.656Z,6.89
2023-02-19T09:31:08.637Z,6.92
2023-02-19T09:33:38.517Z,6.92
2023-02-19T09:36:07.306Z,6.98
2023-02-19T09:38:35.372Z,7.12
2023-02-19T09:41:08.836Z,7.22
2023-02-19T09:43:38.070Z,7.26
2023-02-19T09:46:11.180Z,7.44
2023-02-19T09:48:40.657Z,7.53
2023-02-19T09:51:10.732Z,7.58
2023-02-19T09:53:45.259Z,7.60
2023-02-19T09:56:13.421Z,7.73
2023-02-19T09:58:49.044Z,7.78
2023-02-19T10:01:17.706Z,7.75
2023-02-19T10:03:49.119Z,7.68
2023-02-19T10:06:21.842Z,7.66
2023-02-19T10:08:51.792Z,7.57
2023-02-19T10:11:20.652Z,7.59
2023-02-19T10:13:50.916Z,7.55
2023-02-19T10:16:21.298Z,7.57
2023-02-19T10:18:50.991Z,7.52
2023-02-19T10:21:23.553Z,7.56
2023-02-19T10:23:54.036Z,7.72
2023-02-19T10:26:23.181Z,7.75
2023-02-19T10:28:51.302Z,7.81
2023-02-19T10:31:21.226Z,7.89
2023-02-19T10:33:55.063Z,7.77
2023-02-19T10:36:30.485Z,7.76
2023-02-19T10:39:00.394Z,7.97
2023-02-19T10:41:28.973Z,8.10
2023-02-19T10:44:00.766Z,8.23
2023-02-19T10:46:30.850Z,8.27
2023-02-19T10:49:02.480Z,8.34
2023-02-19T10:51:36.311Z,8.42
2023-02-19T10:54:07.608Z,8.56
2023-02-19T10:56:38.485Z,8.68
2023-02-19T10:59:24.313Z,8.81
2023-02-19T11:01:57.690Z,8.67
2023-02-19T11:04:29.315Z,8.74
2023-02-19T11:06:58.415Z,8.80
2023-02-19T11:09:30.284Z,8.87
2023-02-19T11:11:59.443Z,8.89
2023-02-19T11:14:28.687Z,8.76
2023-02-19T11:16:58.162Z,8.75
2023-02-19T11:19:30.359Z,8.94
2023-02-19T11:22:00.172Z,9.03
2023-02-19T11:24:33.961Z,9.11
2023-02-19T11:27:04.196Z,9.05
2023-02-19T11:29:34.896Z,8.96
2023-02-19T11:32:30.133Z,9.07
2023-02-19T11:35:22.522Z,9.43
2023-02-19T11:37:59.195Z,9.74
2023-02-19T11:40:39.148Z,10.08
2023-02-19T11:43:16.533Z,10.44
2023-02-19T11:45:49.100Z,10.68
2023-02-19T11:48:29.999Z,10.87
2023-02-19T11:51:08.764Z,10.94
2023-02-19T11:53:43.497Z,10.93
2023-02-19T11:56:16.484Z,10.94
2023-02-19T11:59:01.561Z,10.80
2023-02-19T12:01:49.490Z,10.52
2023-02-19T12:04:56.090Z,10.36
2023-02-19T12:07:39.333Z,10.30
2023-02-19T12:10:14.217Z,10.38
2023-02-19T12:12:53.374Z,10.54
2023-02-19T12:15:47.386Z,10.71
2023-02-19T12:18:34.653Z,10.94
2023-02-19T12:21:14.449Z,11.04
2023-02-19T12:24:02.449Z,11.01
2023-02-19T12:26:31.760Z,11.03
2023-02-19T12:29:17.485Z,11.08
2023-02-19T12:32:26.295Z,11.15
2023-02-19T12:35:45.148Z,11.15
2023-02-19T12:38:25.124Z,11.18
2023-02-19T12:41:14.801Z,11.26
2023-02-19T12:43:47.335Z,11.34
2023-02-19T12:46:20.043Z,11.32
2023-02-19T12:48:53.985Z,11.35
2023-02-19T12:51:26.745Z,11.48
2023-02-19T12:53:59.904Z,11.47
2023-02-19T12:56:30.751Z,11.34
2023-02-19T12:59:02.603Z,11.33
2023-02-19T13:01:34.687Z,11.47
2023-02-19T13:04:18.931Z,11.69
2023-02-19T13:06:51.398Z,11.94
2023-02-19T13:09:22.286Z,12.11
2023-02-19T13:11:55.369Z,12.31
2023-02-19T13:14:28.343Z,12.17
2023-02-19T13:17:00.176Z,12.08
2023-02-19T13:19:28.362Z,12.27
2023-02-19T13:22:21.283Z,12.32
2023-02-19T13:24:50.656Z,12.49
2023-02-19T13:27:42.413Z,12.64
2023-02-19T13:30:24.912Z,12.58
2023-02-19T13:33:07.807Z,12.28
2023-02-19T13:36:06.108Z,12.11
2023-02-19T13:38:38.483Z,12.03
2023-02-19T13:41:06.623Z,11.95
2023-02-19T13:43:38.857Z,11.93
2023-02-19T13:46:08.830Z,11.78
2023-02-19T13:48:39.103Z,11.33
2023-02-19T13:51:49.537Z,11.08
2023-02-19T13:54:28.730Z,11.01
2023-02-19T13:57:26.478Z,11.16
2023-02-19T13:59:56.934Z,11.50
2023-02-19T14:02:34.031Z,11.93
2023-02-19T14:05:07.576Z,12.30
2023-02-19T14:07:53.042Z,12.49
2023-02-19T14:11:04.990Z,12.61
2023-02-19T14:14:25.668Z,12.55
2023-02-19T14:17:01.263Z,12.41
2023-02-19T14:19:47.875Z,12.35
2023-02-19T14:22:55.444Z,12.16
2023-02-19T14:25:30.405Z,12.05
2023-02-19T14:28:03.026Z,12.07
2023-02-19T14:30:32.814Z,12.03
2023-02-19T14:33:11.066Z,12.09
2023-02-19T14:35:41.879Z,12.28
2023-02-19T14:38:16.276Z,12.49
2023-02-19T14:40:47.339Z,12.36
2023-02-19T14:43:17.312Z,12.16
2023-02-19T14:45:48.433Z,11.86
2023-02-19T14:48:23.019Z,11.47
2023-02-19T14:50:55.419Z,11.04
2023-02-19T14:53:25.204Z,10.53
2023-02-19T14:55:53.910Z,10.12
2023-02-19T14:58:24.629Z,9.79
2023-02-19T15:00:52.879Z,9.61
2023-02-19T15:03:29.309Z,9.49
2023-02-19T15:06:00.361Z,9.30
2023-02-19T15:08:36.068Z,9.10
2023-02-19T15:11:09.880Z,8.94
2023-02-19T15:13:38.935Z,8.79
2023-02-19T15:16:08.468Z,8.71
2023-02-19T15:18:38.737Z,8.68
2023-02-19T15:21:25.572Z,8.57
2023-02-19T15:23:56.079Z,8.47
2023-02-19T15:26:27.911Z,8.37
2023-02-19T15:29:00.557Z,8.29
2023-02-19T15:31:28.982Z,8.19
2023-02-19T15:33:58.494Z,8.11
2023-02-19T15:36:30.602Z,8.05
2023-02-19T15:39:01.042Z,8.02
2023-02-19T15:41:33.424Z,7.99
2023-02-19T15:44:21.337Z,7.96
2023-02-19T15:46:49.850Z,7.92
2023-02-19T15:49:22.893Z,7.85
2023-02-19T15:51:55.336Z,7.80
2023-02-19T15:54:27.203Z,7.74
2023-02-19T15:56:57.461Z,7.71
2023-02-19T15:59:28.286Z,7.68
2023-02-19T16:01:56.827Z,7.66
2023-02-19T16:04:26.360Z,7.62
2023-02-19T16:06:57.058Z,7.60
2023-02-19T16:09:30.811Z,7.55
2023-02-19T16:12:00.578Z,7.54
2023-02-19T16:14:33.273Z,7.56
2023-02-19T16:17:08.362Z,7.58
2023-02-19T16:19:46.688Z,7.57
2023-02-19T16:22:18.128Z,7.54
2023-02-19T16:24:47.544Z,7.51
2023-02-19T16:27:28.488Z,7.47
2023-02-19T16:29:57.644Z,7.43
2023-02-19T16:32:26.056Z,7.41
2023-02-19T16:34:55.606Z,7.36
2023-02-19T16:37:38.306Z,7.31
2023-02-19T16:40:52.243Z,7.24
2023-02-19T16:43:31.251Z,7.16
2023-02-19T16:46:00.133Z,7.08
2023-02-19T16:48:28.320Z,7.01
2023-02-19T16:50:57.820Z,6.97
2023-02-19T16:53:26.344Z,6.89
2023-02-19T16:55:54.430Z,6.85
2023-02-19T16:58:22.552Z,6.80
2023-02-19T17:00:50.993Z,6.77
2023-02-19T17:03:21.067Z,6.72
2023-02-19T17:05:49.434Z,6.68
2023-02-19T17:08:43.521Z,6.62
2023-02-19T17:11:13.266Z,6.58
2023-02-19T17:13:41.678Z,6.56
2023-02-19T17:16:14.846Z,6.53
2023-02-19T17:18:43.048Z,6.51
2023-02-19T17:21:14.802Z,6.50
2023-02-19T17:23:44.622Z,6.50
2023-02-19T17:26:14.882Z,6.47
2023-02-19T17:28:43.141Z,6.43
2023-02-19T17:31:12.484Z,6.40
2023-02-19T17:33:41.075Z,6.37
2023-02-19T17:36:09.626Z,6.35
2023-02-19T17:38:37.799Z,6.36
2023-02-19T17:41:07.318Z,6.35
2023-02-19T17:43:35.840Z,6.37
2023-02-19T17:46:04.165Z,6.37
2023-02-19T17:48:32.289Z,6.36
2023-02-19T17:51:00.394Z,6.36
2023-02-19T17:53:28.474Z,6.35
2023-02-19T17:55:56.579Z,6.33
2023-02-19T17:58:26.395Z,6.32
2023-02-19T18:00:54.798Z,6.31
2023-02-19T18:03:22.914Z,6.31
2023-02-19T18:05:51.021Z,6.32
2023-02-19T18:08:19.096Z,6.32
2023-02-19T18:10:47.350Z,6.31
2023-02-19T18:13:15.483Z,6.30
2023-02-19T18:15:44.946Z,6.31
2023-02-19T18:18:13.000Z,6.31
2023-02-19T18:20:41.186Z,6.28
2023-02-19T18:23:09.287Z,6.26
2023-02-19T18:25:37.423Z,6.22
2023-02-19T18:28:05.869Z,6.22
2023-02-19T18:30:34.084Z,6.23
2023-02-19T18:33:03.638Z,6.22
2023-02-19T18:35:33.645Z,6.20
2023-02-19T18:38:02.759Z,6.22
2023-02-19T18:40:30.874Z,6.21
2023-02-19T18:42:58.956Z,6.17
2023-02-19T18:45:27.525Z,6.16
2023-02-19T18:47:55.641Z,6.17
2023-02-19T18:50:25.143Z,6.18
2023-02-19T18:52:53.228Z,6.19
2023-02-19T18:55:21.390Z,6.19
2023-02-19T18:57:49.865Z,6.18
2023-02-19T19:00:19.320Z,6.16
2023-02-19T19:02:51.343Z,6.11
2023-02-19T19:05:22.628Z,6.10
2023-02-19T19:07:52.607Z,6.10
2023-02-19T19:10:21.324Z,6.10
2023-02-19T19:12:49.915Z,6.08
2023-02-19T19:15:19.068Z,6.07
2023-02-19T19:17:47.462Z,6.06
2023-02-19T19:20:17.253Z,6.06
2023-02-19T19:22:45.442Z,6.04
2023-02-19T19:25:15.288Z,6.00
2023-02-19T19:27:43.334Z,5.97
2023-02-19T19:30:12.065Z,5.93
2023-02-19T19:32:40.235Z,5.88
2023-02-19T19:35:08.940Z,5.84
2023-02-19T19:37:37.019Z,5.82
2023-02-19T19:40:05.872Z,5.78
2023-02-19T19:42:35.319Z,5.74
2023-02-19T19:45:03.600Z,5.70
2023-02-19T19:47:31.887Z,5.66
2023-02-19T19:50:00.007Z,5.64
2023-02-19T19:52:28.112Z,5.61
2023-02-19T19:54:56.239Z,5.57
2023-02-19T19:57:24.363Z,5.53
2023-02-19T19:59:53.847Z,5.49
2023-02-19T20:02:22.774Z,5.48
2023-02-19T20:04:51.048Z,5.46
2023-02-19T20:07:19.122Z,5.44
2023-02-19T20:09:48.705Z,5.44
2023-02-19T20:12:16.941Z,5.43
2023-02-19T20:14:45.691Z,5.43
2023-02-19T20:17:15.503Z,5.43
2023-02-19T20:19:43.714Z,5.44
2023-02-19T20:22:12.219Z,5.44
2023-02-19T20:24:40.360Z,5.44
2023-02-19T20:27:08.921Z,5.42
2023-02-19T20:29:37.145Z,5.42
2023-02-19T20:32:05.544Z,5.41
2023-02-19T20:34:35.051Z,5.40
2023-02-19T20:37:03.123Z,5.41
2023-02-19T20:39:31.215Z,5.42
2023-02-19T20:42:00.209Z,5.44
2023-02-19T20:44:29.201Z,5.45
2023-02-19T20:46:58.818Z,5.45
2023-02-19T20:49:28.164Z,5.47
2023-02-19T20:51:59.157Z,5.47
2023-02-19T20:54:28.467Z,5.48
2023-02-19T20:56:57.966Z,5.48
2023-02-19T20:59:30.474Z,5.49
2023-02-19T21:01:58.964Z,5.51
2023-02-19T21:04:27.249Z,5.50
2023-02-19T21:06:55.378Z,5.53
2023-02-19T21:09:24.956Z,5.51
2023-02-19T21:11:53.074Z,5.51
2023-02-19T21:14:21.206Z,5.53
2023-02-19T21:16:49.334Z,5.54
2023-02-19T21:19:17.741Z,5.54
2023-02-19T21:21:45.810Z,5.57
2023-02-19T21:24:14.286Z,5.61
2023-02-19T21:26:44.685Z,5.63
2023-02-19T21:29:16.693Z,5.63
2023-02-19T21:31:46.193Z,5.64
2023-02-19T21:34:16.466Z,5.66
2023-02-19T21:36:44.789Z,5.69
2023-02-19T21:39:14.201Z,5.72
2023-02-19T21:41:43.870Z,5.75
2023-02-19T21:44:11.960Z,5.76
2023-02-19T21:46:40.091Z,5.76
2023-02-19T21:49:08.477Z,5.77
2023-02-19T21:51:37.983Z,5.79
2023-02-19T21:54:07.227Z,5.83
2023-02-19T21:56:36.937Z,5.85
2023-02-19T21:59:06.639Z,5.86
2023-02-19T22:01:38.567Z,5.88
2023-02-19T22:04:06.823Z,5.88
2023-02-19T22:06:35.359Z,5.90
2023-02-19T22:09:03.800Z,5.93
2023-02-19T22:11:31.955Z,5.97
2023-02-19T22:14:00.156Z,6.00
2023-02-19T22:16:29.743Z,6.04
2023-02-19T22:18:59.557Z,6.08
2023-02-19T22:21:29.174Z,6.11
2023-02-19T22:23:58.320Z,6.14
2023-02-19T22:26:28.544Z,6.17
2023-02-19T22:28:56.799Z,6.19
2023-02-19T22:31:27.070Z,6.20
2023-02-19T22:33:57.118Z,6.23
2023-02-19T22:36:27.981Z,6.22
2023-02-19T22:38:56.120Z,6.23
2023-02-19T22:41:24.431Z,6.25
2023-02-19T22:43:55.626Z,6.27
2023-02-19T22:46:25.939Z,6.28
2023-02-19T22:48:53.993Z,6.30
2023-02-19T22:51:25.094Z,6.30
2023-02-19T22:53:54.591Z,6.29
2023-02-19T22:56:24.295Z,6.27
2023-02-19T22:58:52.571Z,6.27
2023-02-19T23:01:21.281Z,6.26
2023-02-19T23:03:50.396Z,6.23
2023-02-19T23:06:22.089Z,6.20
2023-02-19T23:08:51.588Z,6.19
2023-02-19T23:11:23.700Z,6.19
2023-02-19T23:13:51.856Z,6.18
2023-02-19T23:16:19.968Z,6.16
2023-02-19T23:18:48.757Z,6.18
2023-02-19T23:21:17.226Z,6.16
2023-02-19T23:23:46.390Z,6.15
2023-02-19T23:26:16.883Z,6.13
2023-02-19T23:28:45.358Z,6.13
2023-02-19T23:31:14.262Z,6.12
2023-02-19T23:33:42.610Z,6.12
2023-02-19T23:36:11.383Z,6.11
2023-02-19T23:38:39.606Z,6.12
2023-02-19T23:41:10.531Z,6.12
2023-02-19T23:43:40.432Z,6.11
2023-02-19T23:46:08.713Z,6.11
2023-02-19T23:48:36.807Z,6.12
2023-02-19T23:51:05.093Z,6.13
2023-02-19T23:53:33.219Z,6.13
2023-02-19T23:56:01.316Z,6.12
2023-02-19T23:58:29.363Z,6.10
